Time,TemperatureF,DewpointF,PressureIn,WindDirection,WindDirectionDegrees,WindSpeedMPH,WindSpeedGustMPH,Humidity,HourlyPrecipIn,Conditions,Clouds,dailyrainin,SoftwareType,DateUTC
2013-08-13 00:01:00,60.7,56.8,30.06,NNE,17,0.0,0.0,87,0.00,,,0.00,VWS V12.08,2013-08-13 05:01:00,
2013-08-13 00:06:00,60.4,56.5,30.06,NNE,17,0.0,0.0,87,0.00,,,0.00,VWS V12.08,2013-08-13 05:06:00,
2013-08-13 00:11:00,60.1,56.5,30.06,NNE,17,0.0,0.0,88,0.00,,,0.00,VWS V12.08,2013-08-13 05:11:00,
2013-08-13 00:16:00,59.8,56.2,30.06,NNE,18,0.0,0.0,88,0.00,,,0.00,VWS V12.08,2013-08-13 05:16:00,
2013-08-13 00:21:00,59.4,55.8,30.06,NNE,18,0.0,0.0,88,0.00,,,0.00,VWS V12.08,2013-08-13 05:21:00,
2013-08-13 00:26:00,59.5,56.3,30.06,NNE,18,0.0,0.0,89,0.00,,,0.00,VWS V12.08,2013-08-13 05:26:00,
2013-08-13 00:31:00,59.3,56.1,30.07,NNE,18,0.0,0.0,89,0.00,,,0.00,VWS V12.08,2013-08-13 05:31:00,
2013-08-13 00:36:00,59.3,56.1,30.06,NNE,17,0.0,0.0,89,0.00,,,0.00,VWS V12.08,2013-08-13 05:36:00,
2013-08-13 00:41:00,59.5,56.3,30.06,NNE,17,0.0,0.0,89,0.00,,,0.00,VWS V12.08,2013-08-13 05:41:00,
2013-08-13 00:46:00,59.8,56.2,30.06,NNE,17,0.0,0.0,88,0.00,,,0.00,VWS V12.08,2013-08-13 05:46:00,
2013-08-13 00:51:00,59.5,55.6,30.06,NNE,18,0.0,0.0,87,0.00,,,0.00,VWS V12.08,2013-08-13 05:51:00,
2013-08-13 00:56:00,59.7,55.8,30.06,NNE,19,0.0,1.0,87,0.00,,,0.00,VWS V12.08,2013-08-13 05:56:00,
2013-08-13 01:01:00,59.8,55.6,30.06,NNE,19,0.0,0.0,86,0.00,,,0.00,VWS V12.08,2013-08-13 06:01:00,
2013-08-13 01:06:00,59.6,55.4,30.06,NNE,19,0.0,0.0,86,0.00,,,0.00,VWS V12.08,2013-08-13 06:06:00,
2013-08-13 01:11:00,59.6,55.1,30.06,NNE,16,0.0,1.0,85,0.00,,,0.00,VWS V12.08,2013-08-13 06:11:00,
2013-08-13 01:16:00,59.7,55.2,30.06,NNE,15,0.0,1.0,85,0.00,,,0.00,VWS V12.08,2013-08-13 06:16:00,
2013-08-13 01:21:00,59.6,55.1,30.06,NNE,16,0.0,1.0,85,0.00,,,0.00,VWS V12.08,2013-08-13 06:21:00,
2013-08-13 01:26:00,59.5,55.0,30.06,NNE,16,0.0,1.0,85,0.00,,,0.00,VWS V12.08,2013-08-13 06:26:00,
2013-08-13 01:31:00,59.4,54.9,30.06,NNE,16,0.0,0.0,85,0.00,,,0.00,VWS V12.08,2013-08-13 06:31:00,
2013-08-13 01:36:00,59.1,54.6,30.06,NNE,15,0.0,0.0,85,0.00,,,0.00,VWS V12.08,2013-08-13 06:36:00,
2013-08-13 01:41:00,58.7,54.2,30.06,NNE,16,0.0,0.0,85,0.00,,,0.00,VWS V12.08,2013-08-13 06:41:00,
2013-08-13 01:46:00,58.4,54.2,30.06,NNE,16,0.0,0.0,86,0.00,,,0.00,VWS V12.08,2013-08-13 06:46:00,
2013-08-13 01:51:00,58.5,54.7,30.06,NNE,15,0.0,1.0,87,0.00,,,0.00,VWS V12.08,2013-08-13 06:51:00,
2013-08-13 01:56:00,58.8,54.6,30.06,NNE,16,0.0,1.0,86,0.00,,,0.00,VWS V12.08,2013-08-13 06:56:00,
2013-08-13 02:01:00,59.1,54.9,30.06,NNE,19,0.0,0.0,86,0.00,,,0.00,VWS V12.08,2013-08-13 07:01:00,
2013-08-13 02:06:00,59.1,54.6,30.06,NNE,19,0.0,0.0,85,0.00,,,0.00,VWS V12.08,2013-08-13 07:06:00,
2013-08-13 02:11:00,58.9,54.7,30.06,NNE,19,0.0,0.0,86,0.00,,,0.00,VWS V12.08,2013-08-13 07:11:00,
2013-08-13 02:16:00,58.7,54.8,30.06,NNE,19,0.0,0.0,87,0.00,,,0.00,VWS V12.08,2013-08-13 07:16:00,
2013-08-13 02:21:00,58.4,54.5,30.06,NNE,18,0.0,0.0,87,0.00,,,0.00,VWS V12.08,2013-08-13 07:21:00,
2013-08-13 02:26:00,58.1,54.6,30.06,NNE,18,0.0,0.0,88,0.00,,,0.00,VWS V12.08,2013-08-13 07:26:00,
2013-08-13 02:31:00,58.1,54.3,30.06,NNE,19,0.0,0.0,87,0.00,,,0.00,VWS V12.08,2013-08-13 07:31:00,
2013-08-13 02:36:00,57.9,54.4,30.06,NNE,19,0.0,0.0,88,0.00,,,0.00,VWS V12.08,2013-08-13 07:36:00,
2013-08-13 02:41:00,58.0,54.5,30.07,NNE,16,0.0,0.0,88,0.00,,,0.00,VWS V12.08,2013-08-13 07:41:00,
2013-08-13 02:46:00,58.0,54.2,30.07,NNE,15,0.0,1.0,87,0.00,,,0.00,VWS V12.08,2013-08-13 07:46:00,
2013-08-13 02:51:00,58.4,54.5,30.07,NNE,23,0.0,1.0,87,0.00,,,0.00,VWS V12.08,2013-08-13 07:51:00,
2013-08-13 02:56:00,58.7,54.5,30.07,NNW,348,1.0,1.0,86,0.00,,,0.00,VWS V12.08,2013-08-13 07:56:00,
2013-08-13 03:01:00,58.6,54.1,30.07,NW,323,0.0,0.0,85,0.00,,,0.00,VWS V12.08,2013-08-13 08:01:00,
2013-08-13 03:06:00,58.4,53.9,30.07,NNE,23,1.0,1.0,85,0.00,,,0.00,VWS V12.08,2013-08-13 08:06:00,
2013-08-13 03:11:00,58.2,54.0,30.07,NNE,27,1.0,2.0,86,0.00,,,0.00,VWS V12.08,2013-08-13 08:11:00,
2013-08-13 03:16:00,58.2,54.4,30.07,NE,42,2.0,2.0,87,0.00,,,0.00,VWS V12.08,2013-08-13 08:16:00,
2013-08-13 03:21:00,58.2,54.0,30.07,NNE,27,0.0,2.0,86,0.00,,,0.00,VWS V12.08,2013-08-13 08:21:00,
2013-08-13 03:26:00,58.0,54.2,30.07,North,5,0.0,2.0,87,0.00,,,0.00,VWS V12.08,2013-08-13 08:26:00,
2013-08-13 03:31:00,57.8,54.0,30.07,NNE,23,2.0,2.0,87,0.00,,,0.00,VWS V12.08,2013-08-13 08:31:00,
2013-08-13 03:36:00,57.9,54.4,30.07,NNE,30,4.0,4.0,88,0.00,,,0.00,VWS V12.08,2013-08-13 08:36:00,
2013-08-13 03:41:00,57.7,54.5,30.07,NE,43,2.0,5.0,89,0.00,,,0.00,VWS V12.08,2013-08-13 08:41:00,
2013-08-13 03:46:00,57.5,54.3,30.07,NNE,24,2.0,5.0,89,0.00,,,0.00,VWS V12.08,2013-08-13 08:46:00,
2013-08-13 03:51:00,57.3,54.4,30.08,NNE,18,1.0,5.0,90,0.00,,,0.00,VWS V12.08,2013-08-13 08:51:00,
2013-08-13 03:56:00,57.2,54.3,30.08,NE,38,1.0,5.0,90,0.00,,,0.00,VWS V12.08,2013-08-13 08:56:00,
2013-08-13 04:01:00,57.1,54.2,30.08,NNE,22,2.0,2.0,90,0.00,,,0.00,VWS V12.08,2013-08-13 09:01:00,
2013-08-13 04:06:00,56.9,54.0,30.08,NNE,18,1.0,5.0,90,0.00,,,0.00,VWS V12.08,2013-08-13 09:06:00,
2013-08-13 04:11:00,56.8,54.2,30.07,NE,34,1.0,5.0,91,0.00,,,0.00,VWS V12.08,2013-08-13 09:11:00,
2013-08-13 04:16:00,56.8,54.2,30.07,NE,38,2.0,5.0,91,0.00,,,0.00,VWS V12.08,2013-08-13 09:16:00,
2013-08-13 04:21:00,56.7,53.8,30.08,NNE,32,3.0,5.0,90,0.00,,,0.00,VWS V12.08,2013-08-13 09:21:00,
2013-08-13 04:26:00,56.6,53.7,30.07,NE,38,2.0,5.0,90,0.00,,,0.00,VWS V12.08,2013-08-13 09:26:00,
2013-08-13 04:31:00,56.5,53.9,30.07,NNE,16,1.0,1.0,91,0.00,,,0.00,VWS V12.08,2013-08-13 09:31:00,
2013-08-13 04:36:00,56.5,53.9,30.07,NE,42,1.0,3.0,91,0.00,,,0.00,VWS V12.08,2013-08-13 09:36:00,
2013-08-13 04:41:00,56.5,53.6,30.07,NE,34,0.0,3.0,90,0.00,,,0.00,VWS V12.08,2013-08-13 09:41:00,
2013-08-13 04:46:00,56.4,53.5,30.07,NE,38,0.0,3.0,90,0.00,,,0.00,VWS V12.08,2013-08-13 09:46:00,
2013-08-13 04:51:00,56.4,53.5,30.07,NW,323,0.0,3.0,90,0.00,,,0.00,VWS V12.08,2013-08-13 09:51:00,
2013-08-13 04:56:00,56.4,53.5,30.07,NNW,338,0.0,3.0,90,0.00,,,0.00,VWS V12.08,2013-08-13 09:56:00,
2013-08-13 05:01:00,56.3,53.4,30.07,NNW,338,0.0,0.0,90,0.00,,,0.00,VWS V12.08,2013-08-13 10:01:00,
2013-08-13 05:06:00,56.1,53.2,30.07,NNW,338,0.0,1.0,90,0.00,,,0.00,VWS V12.08,2013-08-13 10:06:00,
2013-08-13 05:11:00,56.0,53.4,30.07,NNW,338,0.0,1.0,91,0.00,,,0.00,VWS V12.08,2013-08-13 10:11:00,
2013-08-13 05:16:00,56.0,53.4,30.07,NNW,338,0.0,1.0,91,0.00,,,0.00,VWS V12.08,2013-08-13 10:16:00,
2013-08-13 05:21:00,55.9,53.3,30.07,NNW,338,0.0,1.0,91,0.00,,,0.00,VWS V12.08,2013-08-13 10:21:00,
2013-08-13 05:26:00,55.6,53.0,30.08,NNW,338,0.0,1.0,91,0.00,,,0.00,VWS V12.08,2013-08-13 10:26:00,
2013-08-13 05:31:00,55.4,52.8,30.08,NNW,338,0.0,0.0,91,0.00,,,0.00,VWS V12.08,2013-08-13 10:31:00,
2013-08-13 05:36:00,55.5,53.2,30.08,NNW,336,0.0,0.0,92,0.00,,,0.00,VWS V12.08,2013-08-13 10:36:00,
2013-08-13 05:41:00,55.7,53.4,30.08,NNW,335,0.0,0.0,92,0.00,,,0.00,VWS V12.08,2013-08-13 10:41:00,
2013-08-13 05:46:00,55.9,53.6,30.08,NE,43,1.0,1.0,92,0.00,,,0.00,VWS V12.08,2013-08-13 10:46:00,
2013-08-13 05:51:00,56.5,53.9,30.08,NE,42,1.0,3.0,91,0.00,,,0.00,VWS V12.08,2013-08-13 10:51:00,
2013-08-13 05:56:00,56.8,53.9,30.08,NNE,16,2.0,3.0,90,0.00,,,0.00,VWS V12.08,2013-08-13 10:56:00,
2013-08-13 06:01:00,56.6,53.7,30.08,NNE,25,3.0,3.0,90,0.00,,,0.00,VWS V12.08,2013-08-13 11:01:00,
2013-08-13 06:06:00,56.5,53.6,30.08,NNE,26,2.0,3.0,90,0.00,,,0.00,VWS V12.08,2013-08-13 11:06:00,
2013-08-13 06:11:00,56.5,53.6,30.08,NE,48,3.0,4.0,90,0.00,,,0.00,VWS V12.08,2013-08-13 11:11:00,
2013-08-13 06:16:00,56.4,53.5,30.08,NE,48,3.0,5.0,90,0.00,,,0.00,VWS V12.08,2013-08-13 11:16:00,
2013-08-13 06:21:00,56.3,53.7,30.08,NE,47,3.0,5.0,91,0.00,,,0.00,VWS V12.08,2013-08-13 11:21:00,
2013-08-13 06:26:00,56.2,53.6,30.08,NNE,28,3.0,5.0,91,0.00,,,0.00,VWS V12.08,2013-08-13 11:26:00,
2013-08-13 06:31:00,56.1,53.5,30.08,NE,38,3.0,3.0,91,0.00,,,0.00,VWS V12.08,2013-08-13 11:31:00,
2013-08-13 06:36:00,55.9,53.3,30.08,NE,46,3.0,5.0,91,0.00,,,0.00,VWS V12.08,2013-08-13 11:36:00,
2013-08-13 06:41:00,55.8,53.2,30.08,NNE,19,1.0,5.0,91,0.00,,,0.00,VWS V12.08,2013-08-13 11:41:00,
2013-08-13 06:46:00,55.8,53.5,30.09,NE,39,3.0,5.0,92,0.00,,,0.00,VWS V12.08,2013-08-13 11:46:00,
2013-08-13 06:51:00,55.9,53.3,30.09,NNE,26,4.0,6.0,91,0.00,,,0.00,VWS V12.08,2013-08-13 11:51:00,
2013-08-13 06:56:00,56.2,53.6,30.09,NNE,17,6.0,6.0,91,0.00,,,0.00,VWS V12.08,2013-08-13 11:56:00,
2013-08-13 07:01:00,56.6,54.0,30.09,NE,35,3.0,3.0,91,0.00,,,0.00,VWS V12.08,2013-08-13 12:01:00,
2013-08-13 07:06:00,57.0,54.1,30.09,ENE,62,2.0,6.0,90,0.00,,,0.00,VWS V12.08,2013-08-13 12:06:00,
2013-08-13 07:11:00,57.6,54.4,30.09,NE,49,3.0,7.0,89,0.00,,,0.00,VWS V12.08,2013-08-13 12:11:00,
2013-08-13 07:16:00,57.9,54.7,30.09,NE,44,4.0,7.0,89,0.00,,,0.00,VWS V12.08,2013-08-13 12:16:00,
2013-08-13 07:21:00,58.1,54.9,30.10,NE,47,5.0,7.0,89,0.00,,,0.00,VWS V12.08,2013-08-13 12:21:00,
2013-08-13 07:26:00,58.4,54.9,30.10,NE,39,9.0,9.0,88,0.00,,,0.00,VWS V12.08,2013-08-13 12:26:00,
2013-08-13 07:31:00,58.8,55.3,30.10,NE,36,4.0,4.0,88,0.00,,,0.00,VWS V12.08,2013-08-13 12:31:00,
2013-08-13 07:36:00,59.1,55.5,30.10,NE,43,3.0,7.0,88,0.00,,,0.00,VWS V12.08,2013-08-13 12:36:00,
2013-08-13 07:41:00,59.5,55.6,30.10,NNE,24,6.0,8.0,87,0.00,,,0.00,VWS V12.08,2013-08-13 12:41:00,
2013-08-13 07:46:00,59.8,55.6,30.11,WNW,298,3.0,10.0,86,0.00,,,0.00,VWS V12.08,2013-08-13 12:46:00,
2013-08-13 07:51:00,60.1,55.6,30.11,NE,41,7.0,11.0,85,0.00,,,0.00,VWS V12.08,2013-08-13 12:51:00,
2013-08-13 07:56:00,60.4,55.5,30.11,NNE,17,6.0,11.0,84,0.00,,,0.00,VWS V12.08,2013-08-13 12:56:00,
2013-08-13 08:01:00,60.7,55.8,30.11,NNE,32,6.0,11.0,84,0.00,,,0.00,VWS V12.08,2013-08-13 13:01:00,
2013-08-13 08:06:00,60.9,55.7,30.11,NNW,346,4.0,12.0,83,0.00,,,0.00,VWS V12.08,2013-08-13 13:06:00,
2013-08-13 08:11:00,61.1,55.9,30.11,NNE,31,4.0,12.0,83,0.00,,,0.00,VWS V12.08,2013-08-13 13:11:00,
2013-08-13 08:16:00,61.6,56.1,30.11,NE,54,5.0,12.0,82,0.00,,,0.00,VWS V12.08,2013-08-13 13:16:00,
2013-08-13 08:21:00,61.7,55.8,30.11,NNE,31,8.0,13.0,81,0.00,,,0.00,VWS V12.08,2013-08-13 13:21:00,
2013-08-13 08:26:00,61.7,55.8,30.12,NE,40,9.0,13.0,81,0.00,,,0.00,VWS V12.08,2013-08-13 13:26:00,
2013-08-13 08:31:00,61.8,56.2,30.12,NE,38,7.0,13.0,82,0.00,,,0.00,VWS V12.08,2013-08-13 13:31:00,
2013-08-13 08:36:00,61.9,56.0,30.12,NE,38,10.0,13.0,81,0.00,,,0.00,VWS V12.08,2013-08-13 13:36:00,
2013-08-13 08:41:00,61.9,56.3,30.12,NNW,335,4.0,13.0,82,0.00,,,0.00,VWS V12.08,2013-08-13 13:41:00,
2013-08-13 08:46:00,62.3,56.1,30.13,NNE,22,4.0,13.0,80,0.00,,,0.00,VWS V12.08,2013-08-13 13:46:00,
2013-08-13 08:51:00,62.7,56.5,30.13,NNE,26,4.0,13.0,80,0.00,,,0.00,VWS V12.08,2013-08-13 13:51:00,
2013-08-13 08:56:00,62.9,56.3,30.13,NNE,22,6.0,13.0,79,0.00,,,0.00,VWS V12.08,2013-08-13 13:56:00,
2013-08-13 09:01:00,63.0,56.0,30.13,NE,54,9.0,13.0,78,0.00,,,0.00,VWS V12.08,2013-08-13 14:01:00,
2013-08-13 09:06:00,63.3,56.0,30.13,NE,44,11.0,12.0,77,0.00,,,0.00,VWS V12.08,2013-08-13 14:06:00,
2013-08-13 09:11:00,63.5,55.8,30.13,NNE,20,8.0,12.0,76,0.00,,,0.00,VWS V12.08,2013-08-13 14:11:00,
2013-08-13 09:16:00,63.5,55.8,30.13,NNW,348,8.0,13.0,76,0.00,,,0.00,VWS V12.08,2013-08-13 14:16:00,
2013-08-13 09:21:00,63.6,55.9,30.14,NNE,27,6.0,13.0,76,0.00,,,0.00,VWS V12.08,2013-08-13 14:21:00,
2013-08-13 09:26:00,64.1,56.8,30.14,NE,42,12.0,13.0,77,0.00,,,0.00,VWS V12.08,2013-08-13 14:26:00,
2013-08-13 09:31:00,64.6,56.9,30.14,NE,51,11.0,13.0,76,0.00,,,0.00,VWS V12.08,2013-08-13 14:31:00,
2013-08-13 09:36:00,64.6,57.2,30.14,NE,38,7.0,14.0,77,0.00,,,0.00,VWS V12.08,2013-08-13 14:36:00,
2013-08-13 09:41:00,65.2,57.8,30.14,NE,40,5.0,14.0,77,0.00,,,0.00,VWS V12.08,2013-08-13 14:41:00,
2013-08-13 09:46:00,65.8,58.0,30.14,NNE,30,5.0,14.0,76,0.00,,,0.00,VWS V12.08,2013-08-13 14:46:00,
2013-08-13 09:50:00,66.3,57.8,30.14,NE,46,12.0,14.0,74,0.00,,,0.00,VWS V12.08,2013-08-13 14:50:00,
2013-08-13 09:55:00,66.4,57.9,30.14,ESE,102,0.0,14.0,74,0.00,,,0.00,VWS V12.08,2013-08-13 14:55:00,
2013-08-13 10:00:00,66.5,56.8,30.14,NE,46,13.0,14.0,71,0.00,,,0.00,VWS V12.08,2013-08-13 15:00:00,
2013-08-13 10:05:00,66.4,57.1,30.14,NNE,31,9.0,13.0,72,0.00,,,0.00,VWS V12.08,2013-08-13 15:05:00,
2013-08-13 10:10:00,66.8,56.7,30.14,NE,52,8.0,13.0,70,0.00,,,0.00,VWS V12.08,2013-08-13 15:10:00,
2013-08-13 10:15:00,67.2,57.5,30.14,NE,36,3.0,13.0,71,0.00,,,0.00,VWS V12.08,2013-08-13 15:15:00,
2013-08-13 10:20:00,68.2,57.7,30.14,NE,53,10.0,13.0,69,0.00,,,0.00,VWS V12.08,2013-08-13 15:20:00,
2013-08-13 10:25:00,68.0,57.1,30.14,NE,51,9.0,14.0,68,0.00,,,0.00,VWS V12.08,2013-08-13 15:25:00,
2013-08-13 10:30:00,68.5,56.3,30.14,ENE,65,6.0,14.0,65,0.00,,,0.00,VWS V12.08,2013-08-13 15:30:00,
2013-08-13 10:35:00,68.8,56.1,30.14,ENE,57,5.0,13.0,64,0.00,,,0.00,VWS V12.08,2013-08-13 15:35:00,
2013-08-13 10:40:00,68.9,55.8,30.14,NE,41,0.0,13.0,63,0.00,,,0.00,VWS V12.08,2013-08-13 15:40:00,
2013-08-13 10:45:00,69.0,55.9,30.14,NE,53,11.0,13.0,63,0.00,,,0.00,VWS V12.08,2013-08-13 15:45:00,
2013-08-13 10:50:00,69.2,56.5,30.14,NE,54,10.0,14.0,64,0.00,,,0.00,VWS V12.08,2013-08-13 15:50:00,
2013-08-13 10:55:00,69.2,56.5,30.14,NE,47,7.0,14.0,64,0.00,,,0.00,VWS V12.08,2013-08-13 15:55:00,
2013-08-13 11:00:00,69.2,54.7,30.15,NE,43,10.0,14.0,60,0.00,,,0.00,VWS V12.08,2013-08-13 16:00:00,
2013-08-13 11:05:00,69.6,56.0,30.15,NNE,32,9.0,15.0,62,0.00,,,0.00,VWS V12.08,2013-08-13 16:05:00,
2013-08-13 11:10:00,69.7,55.7,30.15,East,80,1.0,15.0,61,0.00,,,0.00,VWS V12.08,2013-08-13 16:10:00,
2013-08-13 11:15:00,70.0,55.0,30.15,NE,47,7.0,15.0,59,0.00,,,0.00,VWS V12.08,2013-08-13 16:15:00,
2013-08-13 11:20:00,70.0,54.1,30.15,NE,43,5.0,15.0,57,0.00,,,0.00,VWS V12.08,2013-08-13 16:20:00,
2013-08-13 11:25:00,70.6,54.6,30.15,NE,47,5.0,15.0,57,0.00,,,0.00,VWS V12.08,2013-08-13 16:25:00,
2013-08-13 11:30:00,70.7,54.2,30.15,NE,41,9.0,15.0,56,0.00,,,0.00,VWS V12.08,2013-08-13 16:30:00,
2013-08-13 11:35:00,70.8,53.8,30.15,NNW,333,6.0,13.0,55,0.00,,,0.00,VWS V12.08,2013-08-13 16:35:00,
2013-08-13 11:40:00,71.0,54.0,30.15,NE,44,11.0,14.0,55,0.00,,,0.00,VWS V12.08,2013-08-13 16:40:00,
2013-08-13 11:45:00,71.0,53.0,30.15,ENE,77,6.0,14.0,53,0.00,,,0.00,VWS V12.08,2013-08-13 16:45:00,
2013-08-13 11:50:00,70.6,53.2,30.15,ENE,77,7.0,16.0,54,0.00,,,0.00,VWS V12.08,2013-08-13 16:50:00,
2013-08-13 11:55:00,70.9,52.9,30.15,ENE,77,6.0,16.0,53,0.00,,,0.00,VWS V12.08,2013-08-13 16:55:00,
2013-08-13 12:00:00,71.1,53.1,30.15,NNE,28,8.0,16.0,53,0.00,,,0.00,VWS V12.08,2013-08-13 17:00:00,
2013-08-13 12:05:00,71.2,53.2,30.15,NNE,23,10.0,17.0,53,0.00,,,0.00,VWS V12.08,2013-08-13 17:05:00,
2013-08-13 12:12:00,71.4,53.4,30.15,NNE,15,5.0,17.0,53,0.00,,,0.00,VWS V12.08,2013-08-13 17:12:00,
2013-08-13 12:17:00,71.0,53.5,30.15,NNE,23,10.0,17.0,54,0.00,,,0.00,VWS V12.08,2013-08-13 17:17:00,
2013-08-13 12:22:00,71.2,52.7,30.15,NE,51,7.0,17.0,52,0.00,,,0.00,VWS V12.08,2013-08-13 17:22:00,
2013-08-13 12:27:00,71.7,53.7,30.15,NE,46,8.0,17.0,53,0.00,,,0.00,VWS V12.08,2013-08-13 17:27:00,
2013-08-13 12:32:00,71.7,53.2,30.15,NNE,20,6.0,11.0,52,0.00,,,0.00,VWS V12.08,2013-08-13 17:32:00,
2013-08-13 12:37:00,71.5,54.0,30.15,NE,42,7.0,11.0,54,0.00,,,0.00,VWS V12.08,2013-08-13 17:37:00,
2013-08-13 12:42:00,71.9,53.3,30.15,NE,34,10.0,15.0,52,0.00,,,0.00,VWS V12.08,2013-08-13 17:42:00,
2013-08-13 12:47:00,71.8,53.2,30.15,NE,49,6.0,15.0,52,0.00,,,0.00,VWS V12.08,2013-08-13 17:47:00,
2013-08-13 12:52:00,71.9,53.3,30.15,NE,51,11.0,18.0,52,0.00,,,0.00,VWS V12.08,2013-08-13 17:52:00,
2013-08-13 12:57:00,71.4,53.9,30.15,East,82,9.0,18.0,54,0.00,,,0.00,VWS V12.08,2013-08-13 17:57:00,
2013-08-13 13:02:00,71.9,54.4,30.15,NNE,31,4.0,12.0,54,0.00,,,0.00,VWS V12.08,2013-08-13 18:02:00,
2013-08-13 13:07:00,72.3,53.7,30.14,NNE,17,7.0,17.0,52,0.00,,,0.00,VWS V12.08,2013-08-13 18:07:00,
2013-08-13 13:12:00,72.6,54.5,30.14,NNW,328,5.0,17.0,53,0.00,,,0.00,VWS V12.08,2013-08-13 18:12:00,
2013-08-13 13:17:00,72.8,54.2,30.14,NNE,20,5.0,17.0,52,0.00,,,0.00,VWS V12.08,2013-08-13 18:17:00,
2013-08-13 13:22:00,72.6,53.5,30.15,NE,47,6.0,17.0,51,0.00,,,0.00,VWS V12.08,2013-08-13 18:22:00,
2013-08-13 13:27:00,73.3,53.0,30.14,NNE,22,7.0,17.0,49,0.00,,,0.00,VWS V12.08,2013-08-13 18:27:00,
2013-08-13 13:32:00,73.4,53.7,30.14,North,350,9.0,14.0,50,0.00,,,0.00,VWS V12.08,2013-08-13 18:32:00,
2013-08-13 13:37:00,73.3,53.6,30.14,NNE,20,5.0,14.0,50,0.00,,,0.00,VWS V12.08,2013-08-13 18:37:00,
2013-08-13 13:42:00,73.0,53.3,30.14,NNE,30,12.0,17.0,50,0.00,,,0.00,VWS V12.08,2013-08-13 18:42:00,
2013-08-13 13:47:00,72.6,53.5,30.14,NNW,336,4.0,17.0,51,0.00,,,0.00,VWS V12.08,2013-08-13 18:47:00,
2013-08-13 13:52:00,72.9,53.7,30.13,NE,40,16.0,17.0,51,0.00,,,0.00,VWS V12.08,2013-08-13 18:52:00,
2013-08-13 13:57:00,72.5,52.3,30.14,NNW,330,5.0,18.0,49,0.00,,,0.00,VWS V12.08,2013-08-13 18:57:00,
2013-08-13 14:02:00,72.6,54.0,30.14,NE,51,11.0,17.0,52,0.00,,,0.00,VWS V12.08,2013-08-13 19:02:00,
2013-08-13 14:07:00,72.6,53.5,30.14,NE,34,8.0,17.0,51,0.00,,,0.00,VWS V12.08,2013-08-13 19:07:00,
2013-08-13 14:12:00,72.2,53.1,30.13,NNW,338,4.0,17.0,51,0.00,,,0.00,VWS V12.08,2013-08-13 19:12:00,
2013-08-13 14:17:00,72.8,53.6,30.14,WNW,300,3.0,17.0,51,0.00,,,0.00,VWS V12.08,2013-08-13 19:17:00,
2013-08-13 14:22:00,73.6,53.8,30.13,WNW,295,14.0,17.0,50,0.00,,,0.00,VWS V12.08,2013-08-13 19:22:00,
2013-08-13 14:27:00,73.4,53.1,30.13,NNW,330,9.0,17.0,49,0.00,,,0.00,VWS V12.08,2013-08-13 19:27:00,
2013-08-13 14:32:00,72.8,52.0,30.13,NE,51,9.0,15.0,48,0.00,,,0.00,VWS V12.08,2013-08-13 19:32:00,
2013-08-13 14:37:00,73.0,52.2,30.13,NE,40,11.0,17.0,48,0.00,,,0.00,VWS V12.08,2013-08-13 19:37:00,
2013-08-13 14:42:00,73.1,51.7,30.13,NW,315,6.0,17.0,47,0.00,,,0.00,VWS V12.08,2013-08-13 19:42:00,
2013-08-13 14:47:00,73.4,52.0,30.13,NNE,26,13.0,17.0,47,0.00,,,0.00,VWS V12.08,2013-08-13 19:47:00,
2013-08-13 14:52:00,73.3,52.5,30.13,SE,134,2.0,17.0,48,0.00,,,0.00,VWS V12.08,2013-08-13 19:52:00,
2013-08-13 14:57:00,74.0,51.9,30.13,NE,39,7.0,17.0,46,0.00,,,0.00,VWS V12.08,2013-08-13 19:57:00,
2013-08-13 15:02:00,73.5,51.5,30.13,NE,50,13.0,17.0,46,0.00,,,0.00,VWS V12.08,2013-08-13 20:02:00,
2013-08-13 15:07:00,72.9,51.5,30.13,NNW,335,8.0,17.0,47,0.00,,,0.00,VWS V12.08,2013-08-13 20:07:00,
2013-08-13 15:12:00,72.8,51.4,30.13,NE,42,8.0,17.0,47,0.00,,,0.00,VWS V12.08,2013-08-13 20:12:00,
2013-08-13 15:17:00,72.3,50.4,30.13,NE,44,15.0,17.0,46,0.00,,,0.00,VWS V12.08,2013-08-13 20:17:00,
2013-08-13 15:22:00,73.0,51.0,30.13,NE,46,7.0,18.0,46,0.00,,,0.00,VWS V12.08,2013-08-13 20:22:00,
2013-08-13 15:27:00,73.1,50.5,30.13,NNW,335,5.0,18.0,45,0.00,,,0.00,VWS V12.08,2013-08-13 20:27:00,
2013-08-13 15:32:00,73.5,50.3,30.13,NNW,344,10.0,13.0,44,0.00,,,0.00,VWS V12.08,2013-08-13 20:32:00,
2013-08-13 15:37:00,73.2,48.8,30.13,West,272,6.0,18.0,42,0.00,,,0.00,VWS V12.08,2013-08-13 20:37:00,
2013-08-13 15:42:00,73.2,48.8,30.12,NNW,338,4.0,18.0,42,0.00,,,0.00,VWS V12.08,2013-08-13 20:42:00,
2013-08-13 15:47:00,73.4,47.6,30.12,North,355,14.0,18.0,40,0.00,,,0.00,VWS V12.08,2013-08-13 20:47:00,
2013-08-13 15:52:00,73.5,47.0,30.13,NNW,344,3.0,18.0,39,0.00,,,0.00,VWS V12.08,2013-08-13 20:52:00,
2013-08-13 15:57:00,73.8,48.0,30.12,NNW,348,10.0,18.0,40,0.00,,,0.00,VWS V12.08,2013-08-13 20:57:00,
2013-08-13 16:02:00,73.6,45.8,30.12,ESE,106,4.0,16.0,37,0.00,,,0.00,VWS V12.08,2013-08-13 21:02:00,
2013-08-13 16:07:00,73.8,45.9,30.12,NW,309,3.0,16.0,37,0.00,,,0.00,VWS V12.08,2013-08-13 21:07:00,
2013-08-13 16:12:00,73.7,47.2,30.12,NE,47,6.0,16.0,39,0.00,,,0.00,VWS V12.08,2013-08-13 21:12:00,
2013-08-13 16:17:00,72.9,47.2,30.12,ENE,77,7.0,16.0,40,0.00,,,0.00,VWS V12.08,2013-08-13 21:17:00,
2013-08-13 16:22:00,73.1,47.4,30.12,ENE,61,12.0,16.0,40,0.00,,,0.00,VWS V12.08,2013-08-13 21:22:00,
2013-08-13 16:27:00,72.7,46.3,30.12,ENE,61,4.0,16.0,39,0.00,,,0.00,VWS V12.08,2013-08-13 21:27:00,
2013-08-13 16:32:00,73.2,47.5,30.12,NE,53,4.0,9.0,40,0.00,,,0.00,VWS V12.08,2013-08-13 21:32:00,
2013-08-13 16:37:00,73.2,46.8,30.12,ENE,61,6.0,13.0,39,0.00,,,0.00,VWS V12.08,2013-08-13 21:37:00,
2013-08-13 16:42:00,73.3,47.5,30.12,ENE,61,5.0,13.0,40,0.00,,,0.00,VWS V12.08,2013-08-13 21:42:00,
2013-08-13 16:47:00,73.3,46.9,30.12,ENE,61,5.0,13.0,39,0.00,,,0.00,VWS V12.08,2013-08-13 21:47:00,
2013-08-13 16:52:00,72.9,46.5,30.11,ENE,67,5.0,13.0,39,0.00,,,0.00,VWS V12.08,2013-08-13 21:52:00,
2013-08-13 16:57:00,73.6,46.5,30.11,NE,44,2.0,13.0,38,0.00,,,0.00,VWS V12.08,2013-08-13 21:57:00,
2013-08-13 17:02:00,73.7,46.5,30.11,ENE,74,3.0,7.0,38,0.00,,,0.00,VWS V12.08,2013-08-13 22:02:00,
2013-08-13 17:07:00,73.2,48.1,30.11,NE,43,7.0,15.0,41,0.00,,,0.00,VWS V12.08,2013-08-13 22:07:00,
2013-08-13 17:12:00,73.6,49.1,30.11,East,80,6.0,15.0,42,0.00,,,0.00,VWS V12.08,2013-08-13 22:12:00,
2013-08-13 17:17:00,73.3,48.8,30.10,NE,49,6.0,15.0,42,0.00,,,0.00,VWS V12.08,2013-08-13 22:17:00,
2013-08-13 17:22:00,73.2,50.0,30.11,ENE,67,4.0,15.0,44,0.00,,,0.00,VWS V12.08,2013-08-13 22:22:00,
2013-08-13 17:27:00,73.2,49.4,30.11,ENE,73,10.0,15.0,43,0.00,,,0.00,VWS V12.08,2013-08-13 22:27:00,
2013-08-13 17:32:00,73.2,50.0,30.11,NNE,31,5.0,11.0,44,0.00,,,0.00,VWS V12.08,2013-08-13 22:32:00,
2013-08-13 17:37:00,73.1,49.3,30.11,NE,44,7.0,11.0,43,0.00,,,0.00,VWS V12.08,2013-08-13 22:37:00,
2013-08-13 17:42:00,72.8,48.4,30.11,East,88,5.0,12.0,42,0.00,,,0.00,VWS V12.08,2013-08-13 22:42:00,
2013-08-13 17:47:00,72.7,49.5,30.11,ENE,70,7.0,12.0,44,0.00,,,0.00,VWS V12.08,2013-08-13 22:47:00,
2013-08-13 17:52:00,73.1,49.9,30.11,NE,38,6.0,12.0,44,0.00,,,0.00,VWS V12.08,2013-08-13 22:52:00,
2013-08-13 17:57:00,73.0,49.2,30.10,East,96,5.0,12.0,43,0.00,,,0.00,VWS V12.08,2013-08-13 22:57:00,
2013-08-13 18:02:00,73.3,50.7,30.10,NE,54,4.0,9.0,45,0.00,,,0.00,VWS V12.08,2013-08-13 23:02:00,
2013-08-13 18:07:00,72.8,49.6,30.11,ENE,57,10.0,12.0,44,0.00,,,0.00,VWS V12.08,2013-08-13 23:07:00,
2013-08-13 18:12:00,72.5,49.4,30.10,ENE,58,6.0,12.0,44,0.00,,,0.00,VWS V12.08,2013-08-13 23:12:00,
2013-08-13 18:17:00,72.8,50.8,30.11,NNE,28,4.0,12.0,46,0.00,,,0.00,VWS V12.08,2013-08-13 23:17:00,
2013-08-13 18:22:00,72.7,50.2,30.10,ENE,69,6.0,12.0,45,0.00,,,0.00,VWS V12.08,2013-08-13 23:22:00,
2013-08-13 18:27:00,72.5,51.2,30.10,East,80,3.0,12.0,47,0.00,,,0.00,VWS V12.08,2013-08-13 23:27:00,
2013-08-13 18:32:00,72.3,51.0,30.10,NE,44,4.0,10.0,47,0.00,,,0.00,VWS V12.08,2013-08-13 23:32:00,
2013-08-13 18:37:00,72.3,50.4,30.10,ENE,59,7.0,10.0,46,0.00,,,0.00,VWS V12.08,2013-08-13 23:37:00,
2013-08-13 18:42:00,72.5,50.6,30.10,SE,135,1.0,10.0,46,0.00,,,0.00,VWS V12.08,2013-08-13 23:42:00,
2013-08-13 18:47:00,72.6,50.7,30.10,ENE,64,6.0,10.0,46,0.00,,,0.00,VWS V12.08,2013-08-13 23:47:00,
2013-08-13 18:52:00,72.2,50.9,30.10,NE,38,4.0,10.0,47,0.00,,,0.00,VWS V12.08,2013-08-13 23:52:00,
2013-08-13 18:57:00,72.3,51.0,30.10,SSW,207,1.0,10.0,47,0.00,,,0.00,VWS V12.08,2013-08-13 23:57:00,
2013-08-13 19:02:00,72.6,50.7,30.10,East,94,0.0,2.0,46,0.00,,,0.00,VWS V12.08,2013-08-14 00:02:00,
2013-08-13 19:07:00,72.4,50.5,30.10,ENE,76,2.0,4.0,46,0.00,,,0.00,VWS V12.08,2013-08-14 00:07:00,
2013-08-13 19:12:00,72.4,50.5,30.10,NE,46,3.0,4.0,46,0.00,,,0.00,VWS V12.08,2013-08-14 00:12:00,
2013-08-13 19:17:00,72.3,51.0,30.10,ENE,74,3.0,4.0,47,0.00,,,0.00,VWS V12.08,2013-08-14 00:17:00,
2013-08-13 19:22:00,72.5,51.7,30.10,NE,34,2.0,4.0,48,0.00,,,0.00,VWS V12.08,2013-08-14 00:22:00,
2013-08-13 19:27:00,72.4,51.6,30.10,NE,41,5.0,6.0,48,0.00,,,0.00,VWS V12.08,2013-08-14 00:27:00,
2013-08-13 19:32:00,72.1,53.5,30.10,ENE,61,8.0,8.0,52,0.00,,,0.00,VWS V12.08,2013-08-14 00:32:00,
2013-08-13 19:37:00,71.8,53.8,30.10,ENE,62,6.0,8.0,53,0.00,,,0.00,VWS V12.08,2013-08-14 00:37:00,
2013-08-13 19:42:00,71.5,53.5,30.10,ENE,66,5.0,8.0,53,0.00,,,0.00,VWS V12.08,2013-08-14 00:42:00,
2013-08-13 19:47:00,71.1,54.1,30.10,ENE,65,3.0,8.0,55,0.00,,,0.00,VWS V12.08,2013-08-14 00:47:00,
2013-08-13 19:52:00,70.9,54.0,30.10,ENE,74,3.0,8.0,55,0.00,,,0.00,VWS V12.08,2013-08-14 00:52:00,
2013-08-13 19:57:00,70.7,53.8,30.10,ENE,71,3.0,8.0,55,0.00,,,0.00,VWS V12.08,2013-08-14 00:57:00,
2013-08-13 20:02:00,70.3,54.4,30.10,ENE,76,7.0,7.0,57,0.00,,,0.00,VWS V12.08,2013-08-14 01:02:00,
2013-08-13 20:07:00,69.7,54.8,30.10,ENE,74,4.0,7.0,59,0.00,,,0.00,VWS V12.08,2013-08-14 01:07:00,
2013-08-13 20:12:00,69.4,55.4,30.10,ENE,59,5.0,7.0,61,0.00,,,0.00,VWS V12.08,2013-08-14 01:12:00,
2013-08-13 20:17:00,69.1,55.1,30.10,ENE,77,5.0,7.0,61,0.00,,,0.00,VWS V12.08,2013-08-14 01:17:00,
2013-08-13 20:22:00,68.7,55.2,30.10,ENE,66,3.0,7.0,62,0.00,,,0.00,VWS V12.08,2013-08-14 01:22:00,
2013-08-13 20:27:00,68.4,55.3,30.10,ENE,76,5.0,7.0,63,0.00,,,0.00,VWS V12.08,2013-08-14 01:27:00,
2013-08-13 20:32:00,68.1,55.5,30.11,ENE,65,2.0,5.0,64,0.00,,,0.00,VWS V12.08,2013-08-14 01:32:00,
2013-08-13 20:37:00,67.8,55.6,30.11,ENE,75,3.0,5.0,65,0.00,,,0.00,VWS V12.08,2013-08-14 01:37:00,
2013-08-13 20:42:00,67.5,55.8,30.11,ENE,69,3.0,5.0,66,0.00,,,0.00,VWS V12.08,2013-08-14 01:42:00,
2013-08-13 20:47:00,67.2,55.9,30.11,ENE,63,2.0,5.0,67,0.00,,,0.00,VWS V12.08,2013-08-14 01:47:00,
2013-08-13 20:52:00,67.0,55.7,30.12,East,84,0.0,5.0,67,0.00,,,0.00,VWS V12.08,2013-08-14 01:52:00,
2013-08-13 20:57:00,66.9,55.6,30.12,East,82,3.0,5.0,67,0.00,,,0.00,VWS V12.08,2013-08-14 01:57:00,
2013-08-13 21:02:00,66.9,55.6,30.12,ENE,74,2.0,2.0,67,0.00,,,0.00,VWS V12.08,2013-08-14 02:02:00,
2013-08-13 21:07:00,66.8,55.5,30.12,ENE,66,1.0,4.0,67,0.00,,,0.00,VWS V12.08,2013-08-14 02:07:00,
2013-08-13 21:12:00,66.5,55.6,30.12,East,81,2.0,4.0,68,0.00,,,0.00,VWS V12.08,2013-08-14 02:12:00,
2013-08-13 21:17:00,66.2,55.7,30.12,NNE,25,1.0,4.0,69,0.00,,,0.00,VWS V12.08,2013-08-14 02:17:00,
2013-08-13 21:22:00,65.8,55.4,30.12,ENE,70,2.0,4.0,69,0.00,,,0.00,VWS V12.08,2013-08-14 02:22:00,
2013-08-13 21:27:00,65.6,55.6,30.12,East,81,2.0,4.0,70,0.00,,,0.00,VWS V12.08,2013-08-14 02:27:00,
2013-08-13 21:32:00,65.4,55.4,30.12,NE,49,2.0,3.0,70,0.00,,,0.00,VWS V12.08,2013-08-14 02:32:00,
2013-08-13 21:37:00,65.4,55.4,30.12,ENE,66,2.0,4.0,70,0.00,,,0.00,VWS V12.08,2013-08-14 02:37:00,
2013-08-13 21:42:00,65.2,55.6,30.12,NE,47,2.0,4.0,71,0.00,,,0.00,VWS V12.08,2013-08-14 02:42:00,
2013-08-13 21:47:00,65.0,55.4,30.12,ENE,71,3.0,4.0,71,0.00,,,0.00,VWS V12.08,2013-08-14 02:47:00,
2013-08-13 21:52:00,64.7,55.5,30.12,ENE,76,1.0,4.0,72,0.00,,,0.00,VWS V12.08,2013-08-14 02:52:00,
2013-08-13 21:57:00,64.5,55.3,30.12,NE,40,3.0,4.0,72,0.00,,,0.00,VWS V12.08,2013-08-14 02:57:00,
2013-08-13 22:02:00,64.2,55.4,30.13,ENE,66,3.0,4.0,73,0.00,,,0.00,VWS V12.08,2013-08-14 03:02:00,
2013-08-13 22:07:00,63.9,55.5,30.13,NE,55,3.0,4.0,74,0.00,,,0.00,VWS V12.08,2013-08-14 03:07:00,
2013-08-13 22:12:00,63.7,55.6,30.13,NNE,32,0.0,4.0,75,0.00,,,0.00,VWS V12.08,2013-08-14 03:12:00,
2013-08-13 22:17:00,63.5,55.4,30.13,NE,50,0.0,4.0,75,0.00,,,0.00,VWS V12.08,2013-08-14 03:17:00,
2013-08-13 22:22:00,63.3,55.2,30.14,ENE,71,1.0,4.0,75,0.00,,,0.00,VWS V12.08,2013-08-14 03:22:00,
2013-08-13 22:27:00,63.2,55.5,30.14,NNE,22,0.0,4.0,76,0.00,,,0.00,VWS V12.08,2013-08-14 03:27:00,
2013-08-13 22:32:00,62.9,55.2,30.14,NE,35,1.0,2.0,76,0.00,,,0.00,VWS V12.08,2013-08-14 03:32:00,
2013-08-13 22:37:00,62.7,55.4,30.14,NE,54,0.0,3.0,77,0.00,,,0.00,VWS V12.08,2013-08-14 03:37:00,
2013-08-13 22:42:00,62.5,55.2,30.14,NE,35,0.0,3.0,77,0.00,,,0.00,VWS V12.08,2013-08-14 03:42:00,
2013-08-13 22:47:00,62.3,55.0,30.14,NNE,31,1.0,3.0,77,0.00,,,0.00,VWS V12.08,2013-08-14 03:47:00,
2013-08-13 22:52:00,62.1,55.2,30.14,NE,39,2.0,3.0,78,0.00,,,0.00,VWS V12.08,2013-08-14 03:52:00,
2013-08-13 22:57:00,62.0,55.1,30.14,NE,35,3.0,5.0,78,0.00,,,0.00,VWS V12.08,2013-08-14 03:57:00,
2013-08-13 23:01:00,61.8,54.9,30.14,NE,38,2.0,5.0,78,0.00,,,0.00,VWS V12.08,2013-08-14 04:01:00,
2013-08-13 23:06:00,61.6,54.7,30.14,NE,41,3.0,5.0,78,0.00,,,0.00,VWS V12.08,2013-08-14 04:06:00,
2013-08-13 23:11:00,61.6,54.7,30.14,NNE,22,0.0,5.0,78,0.00,,,0.00,VWS V12.08,2013-08-14 04:11:00,
2013-08-13 23:16:00,61.5,54.9,30.14,NNE,16,1.0,5.0,79,0.00,,,0.00,VWS V12.08,2013-08-14 04:16:00,
2013-08-13 23:21:00,61.4,54.8,30.14,NNE,28,0.0,5.0,79,0.00,,,0.00,VWS V12.08,2013-08-14 04:21:00,
2013-08-13 23:26:00,61.2,54.6,30.14,NNE,17,0.0,5.0,79,0.00,,,0.00,VWS V12.08,2013-08-14 04:26:00,
2013-08-13 23:31:00,61.1,54.5,30.15,ESE,112,1.0,2.0,79,0.00,,,0.00,VWS V12.08,2013-08-14 04:31:00,
2013-08-13 23:36:00,61.1,54.5,30.15,NE,46,1.0,2.0,79,0.00,,,0.00,VWS V12.08,2013-08-14 04:36:00,
2013-08-13 23:41:00,61.1,54.2,30.15,ENE,77,0.0,2.0,78,0.00,,,0.00,VWS V12.08,2013-08-14 04:41:00,
2013-08-13 23:46:00,61.1,54.2,30.15,NE,39,2.0,2.0,78,0.00,,,0.00,VWS V12.08,2013-08-14 04:46:00,
2013-08-13 23:51:00,60.8,54.3,30.15,NE,34,0.0,3.0,79,0.00,,,0.00,VWS V12.08,2013-08-14 04:51:00,
2013-08-13 23:56:00,60.7,54.2,30.15,ENE,74,3.0,3.0,79,0.00,,,0.00,VWS V12.08,2013-08-14 04:56:00,